sensor_id;sensor_type;location;lat;lon;timestamp;pressure;altitude;pressure_sealevel;temperature;humidity
49341;BME280;35209;51.050;13.678;2022-12-31T00:01:36;99312.25;;;9.68;86.84
49341;BME280;35209;51.050;13.678;2022-12-31T00:06:37;99335.38;;;9.58;87.44
49341;BME280;35209;51.050;13.678;2022-12-31T00:11:39;99350.16;;;9.38;89.37
49341;BME280;35209;51.050;13.678;2022-12-31T00:16:41;99365.97;;;9.36;90.46
49341;BME280;35209;51.050;13.678;2022-12-31T00:21:43;99363.19;;;9.41;90.34
49341;BME280;35209;51.050;13.678;2022-12-31T00:26:44;99362.19;;;9.20;91.18
49341;BME280;35209;51.050;13.678;2022-12-31T00:31:46;99366.09;;;9.09;92.38
49341;BME280;35209;51.050;13.678;2022-12-31T00:36:47;99372.59;;;9.23;92.53
49341;BME280;35209;51.050;13.678;2022-12-31T00:41:49;99378.13;;;9.39;92.96
49341;BME280;35209;51.050;13.678;2022-12-31T00:46:50;99390.84;;;9.26;92.78
49341;BME280;35209;51.050;13.678;2022-12-31T00:51:52;99394.41;;;9.00;94.32
49341;BME280;35209;51.050;13.678;2022-12-31T00:56:53;99399.47;;;9.04;95.24
49341;BME280;35209;51.050;13.678;2022-12-31T01:01:55;99405.34;;;9.11;95.32
49341;BME280;35209;51.050;13.678;2022-12-31T01:06:57;99403.72;;;9.32;94.34
49341;BME280;35209;51.050;13.678;2022-12-31T01:11:58;99406.03;;;9.16;95.72
49341;BME280;35209;51.050;13.678;2022-12-31T01:17:00;99419.03;;;9.19;95.46
49341;BME280;35209;51.050;13.678;2022-12-31T01:22:01;99425.03;;;9.23;95.06
49341;BME280;35209;51.050;13.678;2022-12-31T01:27:03;99425.25;;;8.92;96.16
49341;BME280;35209;51.050;13.678;2022-12-31T01:32:05;99435.56;;;8.71;97.50
49341;BME280;35209;51.050;13.678;2022-12-31T01:37:06;99447.63;;;8.77;97.61
49341;BME280;35209;51.050;13.678;2022-12-31T01:42:09;99456.69;;;8.67;97.00
49341;BME280;35209;51.050;13.678;2022-12-31T01:47:13;99468.13;;;8.64;97.56
49341;BME280;35209;51.050;13.678;2022-12-31T01:57:20;99476.00;;;8.63;97.44
49341;BME280;35209;51.050;13.678;2022-12-31T02:02:22;99474.31;;;8.62;97.02
49341;BME280;35209;51.050;13.678;2022-12-31T02:07:24;99475.97;;;8.36;98.61
49341;BME280;35209;51.050;13.678;2022-12-31T02:12:26;99474.75;;;8.48;98.61
49341;BME280;35209;51.050;13.678;2022-12-31T02:17:37;99472.16;;;8.74;96.94
49341;BME280;35209;51.050;13.678;2022-12-31T02:23:06;99474.13;;;8.41;98.61
49341;BME280;35209;51.050;13.678;2022-12-31T02:33:17;99475.13;;;8.37;99.84
49341;BME280;35209;51.050;13.678;2022-12-31T02:38:23;99453.69;;;9.04;100.00
49341;BME280;35209;51.050;13.678;2022-12-31T02:43:26;99440.69;;;10.18;100.00
49341;BME280;35209;51.050;13.678;2022-12-31T02:48:35;99441.34;;;11.28;96.12
49341;BME280;35209;51.050;13.678;2022-12-31T03:04:35;99413.72;;;11.76;90.86
49341;BME280;35209;51.050;13.678;2022-12-31T03:09:37;99430.88;;;12.04;89.29
49341;BME280;35209;51.050;13.678;2022-12-31T03:14:39;99437.50;;;12.12;88.48
49341;BME280;35209;51.050;13.678;2022-12-31T03:19:41;99441.22;;;12.27;87.96
49341;BME280;35209;51.050;13.678;2022-12-31T03:25:07;99436.81;;;12.09;88.80
49341;BME280;35209;51.050;13.678;2022-12-31T03:30:27;99436.34;;;12.37;87.08
49341;BME280;35209;51.050;13.678;2022-12-31T03:35:31;99437.72;;;12.08;89.16
49341;BME280;35209;51.050;13.678;2022-12-31T03:40:36;99442.13;;;12.07;89.37
49341;BME280;35209;51.050;13.678;2022-12-31T03:45:38;99435.75;;;12.30;88.34
49341;BME280;35209;51.050;13.678;2022-12-31T03:50:40;99420.75;;;12.32;87.85
49341;BME280;35209;51.050;13.678;2022-12-31T03:55:41;99432.66;;;12.03;89.36
49341;BME280;35209;51.050;13.678;2022-12-31T04:00:43;99430.88;;;12.04;90.23
49341;BME280;35209;51.050;13.678;2022-12-31T04:05:50;99429.59;;;12.12;90.13
49341;BME280;35209;51.050;13.678;2022-12-31T04:10:52;99432.94;;;12.16;89.34
49341;BME280;35209;51.050;13.678;2022-12-31T04:15:53;99425.69;;;12.02;90.38
49341;BME280;35209;51.050;13.678;2022-12-31T04:20:59;99423.34;;;12.15;89.88
49341;BME280;35209;51.050;13.678;2022-12-31T04:26:01;99436.16;;;12.04;90.62
49341;BME280;35209;51.050;13.678;2022-12-31T04:31:02;99426.25;;;12.28;89.39
49341;BME280;35209;51.050;13.678;2022-12-31T04:36:05;99413.63;;;12.52;87.63
49341;BME280;35209;51.050;13.678;2022-12-31T04:41:07;99409.44;;;12.48;87.66
49341;BME280;35209;51.050;13.678;2022-12-31T04:46:19;99404.19;;;12.65;87.44
49341;BME280;35209;51.050;13.678;2022-12-31T04:51:21;99401.63;;;12.63;87.51
49341;BME280;35209;51.050;13.678;2022-12-31T04:56:23;99406.66;;;13.03;84.55
49341;BME280;35209;51.050;13.678;2022-12-31T05:01:24;99403.41;;;13.15;83.86
49341;BME280;35209;51.050;13.678;2022-12-31T05:06:26;99409.81;;;13.09;84.44
49341;BME280;35209;51.050;13.678;2022-12-31T05:11:28;99401.84;;;13.28;83.20
49341;BME280;35209;51.050;13.678;2022-12-31T05:16:29;99396.56;;;13.28;83.16
49341;BME280;35209;51.050;13.678;2022-12-31T05:21:31;99400.72;;;13.32;83.40
49341;BME280;35209;51.050;13.678;2022-12-31T05:26:33;99401.41;;;13.36;83.42
49341;BME280;35209;51.050;13.678;2022-12-31T05:31:35;99409.13;;;13.56;82.50
49341;BME280;35209;51.050;13.678;2022-12-31T05:36:36;99389.38;;;13.48;82.84
49341;BME280;35209;51.050;13.678;2022-12-31T05:41:38;99402.50;;;13.32;84.04
49341;BME280;35209;51.050;13.678;2022-12-31T05:46:39;99404.50;;;13.44;83.43
49341;BME280;35209;51.050;13.678;2022-12-31T05:51:41;99415.81;;;13.30;84.63
49341;BME280;35209;51.050;13.678;2022-12-31T05:56:42;99419.78;;;13.55;83.40
49341;BME280;35209;51.050;13.678;2022-12-31T06:01:44;99425.44;;;13.65;82.12
49341;BME280;35209;51.050;13.678;2022-12-31T06:06:46;99445.25;;;13.56;82.95
49341;BME280;35209;51.050;13.678;2022-12-31T06:11:47;99445.06;;;13.59;82.79
49341;BME280;35209;51.050;13.678;2022-12-31T06:16:49;99439.31;;;13.68;82.58
49341;BME280;35209;51.050;13.678;2022-12-31T06:21:50;99436.00;;;13.65;82.49
49341;BME280;35209;51.050;13.678;2022-12-31T06:26:52;99429.16;;;13.60;82.38
49341;BME280;35209;51.050;13.678;2022-12-31T06:31:53;99425.63;;;13.44;83.22
49341;BME280;35209;51.050;13.678;2022-12-31T06:36:55;99416.97;;;13.58;82.39
49341;BME280;35209;51.050;13.678;2022-12-31T06:41:57;99417.50;;;13.65;81.83
49341;BME280;35209;51.050;13.678;2022-12-31T06:46:58;99413.16;;;13.63;81.82
49341;BME280;35209;51.050;13.678;2022-12-31T06:52:00;99420.06;;;13.66;81.74
49341;BME280;35209;51.050;13.678;2022-12-31T06:57:02;99438.97;;;13.41;83.19
49341;BME280;35209;51.050;13.678;2022-12-31T07:02:06;99449.16;;;13.49;82.53
49341;BME280;35209;51.050;13.678;2022-12-31T07:22:37;99472.31;;;13.77;81.00
49341;BME280;35209;51.050;13.678;2022-12-31T07:33:20;99450.84;;;13.83;80.66
49341;BME280;35209;51.050;13.678;2022-12-31T07:38:31;99458.19;;;14.09;79.38
49341;BME280;35209;51.050;13.678;2022-12-31T07:48:51;99468.31;;;14.64;76.88
49341;BME280;35209;51.050;13.678;2022-12-31T07:53:52;99466.59;;;14.79;76.13
49341;BME280;35209;51.050;13.678;2022-12-31T08:04:14;99468.38;;;15.09;74.84
49341;BME280;35209;51.050;13.678;2022-12-31T08:14:20;99475.53;;;15.51;72.50
49341;BME280;35209;51.050;13.678;2022-12-31T08:19:25;99476.97;;;15.71;71.55
49341;BME280;35209;51.050;13.678;2022-12-31T08:24:31;99474.03;;;15.76;71.51
49341;BME280;35209;51.050;13.678;2022-12-31T08:29:41;99477.84;;;15.86;70.86
49341;BME280;35209;51.050;13.678;2022-12-31T08:45:05;99494.47;;;16.17;69.21
49341;BME280;35209;51.050;13.678;2022-12-31T08:50:13;99498.16;;;16.14;69.61
49341;BME280;35209;51.050;13.678;2022-12-31T08:55:16;99483.59;;;16.21;68.85
49341;BME280;35209;51.050;13.678;2022-12-31T09:00:19;99486.69;;;16.28;68.73
49341;BME280;35209;51.050;13.678;2022-12-31T09:10:26;99514.88;;;16.43;68.04
49341;BME280;35209;51.050;13.678;2022-12-31T09:15:41;99523.94;;;16.53;67.42
49341;BME280;35209;51.050;13.678;2022-12-31T09:20:44;99526.38;;;16.71;66.70
49341;BME280;35209;51.050;13.678;2022-12-31T09:25:48;99541.38;;;16.57;67.61
49341;BME280;35209;51.050;13.678;2022-12-31T09:35:55;99545.13;;;16.82;65.74
49341;BME280;35209;51.050;13.678;2022-12-31T09:51:27;99542.13;;;17.01;64.20
49341;BME280;35209;51.050;13.678;2022-12-31T09:56:46;99551.31;;;16.95;64.22
49341;BME280;35209;51.050;13.678;2022-12-31T10:02:12;99555.66;;;16.83;65.14
49341;BME280;35209;51.050;13.678;2022-12-31T10:23:06;99556.78;;;17.06;64.19
49341;BME280;35209;51.050;13.678;2022-12-31T10:33:40;99547.78;;;17.22;63.53
49341;BME280;35209;51.050;13.678;2022-12-31T11:15:17;99534.66;;;17.33;63.22
49341;BME280;35209;51.050;13.678;2022-12-31T11:26:06;99545.09;;;17.36;63.13
49341;BME280;35209;51.050;13.678;2022-12-31T11:31:25;99554.44;;;17.42;63.00
49341;BME280;35209;51.050;13.678;2022-12-31T11:41:51;99556.34;;;17.52;62.71
49341;BME280;35209;51.050;13.678;2022-12-31T12:02:22;99560.03;;;17.77;61.11
49341;BME280;35209;51.050;13.678;2022-12-31T12:07:25;99567.34;;;17.73;61.15
49341;BME280;35209;51.050;13.678;2022-12-31T12:12:40;99561.41;;;17.82;60.19
49341;BME280;35209;51.050;13.678;2022-12-31T12:17:42;99558.63;;;17.97;60.29
49341;BME280;35209;51.050;13.678;2022-12-31T12:22:47;99558.81;;;18.32;58.07
49341;BME280;35209;51.050;13.678;2022-12-31T12:27:49;99556.38;;;18.29;57.99
49341;BME280;35209;51.050;13.678;2022-12-31T12:32:52;99547.00;;;18.23;58.18
49341;BME280;35209;51.050;13.678;2022-12-31T12:37:58;99553.31;;;18.22;58.56
49341;BME280;35209;51.050;13.678;2022-12-31T12:43:00;99555.97;;;18.09;58.60
49341;BME280;35209;51.050;13.678;2022-12-31T12:48:06;99551.09;;;18.03;59.21
49341;BME280;35209;51.050;13.678;2022-12-31T13:04:15;99555.97;;;17.97;59.62
49341;BME280;35209;51.050;13.678;2022-12-31T13:14:39;99562.38;;;17.94;59.37
49341;BME280;35209;51.050;13.678;2022-12-31T13:19:49;99551.94;;;17.91;59.91
49341;BME280;35209;51.050;13.678;2022-12-31T13:25:02;99565.78;;;17.96;58.83
49341;BME280;35209;51.050;13.678;2022-12-31T13:30:17;99555.97;;;17.84;59.86
49341;BME280;35209;51.050;13.678;2022-12-31T13:35:26;99562.69;;;17.77;60.05
49341;BME280;35209;51.050;13.678;2022-12-31T13:40:30;99570.56;;;17.91;59.13
49341;BME280;35209;51.050;13.678;2022-12-31T13:45:41;99564.16;;;17.68;60.31
49341;BME280;35209;51.050;13.678;2022-12-31T13:50:51;99587.28;;;17.80;60.03
49341;BME280;35209;51.050;13.678;2022-12-31T13:55:56;99607.03;;;17.76;60.12
49341;BME280;35209;51.050;13.678;2022-12-31T14:01:01;99612.69;;;17.57;60.73
49341;BME280;35209;51.050;13.678;2022-12-31T14:06:08;99600.59;;;17.53;61.00
49341;BME280;35209;51.050;13.678;2022-12-31T14:11:14;99606.00;;;17.52;60.99
49341;BME280;35209;51.050;13.678;2022-12-31T14:21:23;99602.81;;;17.47;61.01
49341;BME280;35209;51.050;13.678;2022-12-31T14:26:28;99603.41;;;17.37;61.85
49341;BME280;35209;51.050;13.678;2022-12-31T14:36:42;99636.09;;;17.25;61.89
49341;BME280;35209;51.050;13.678;2022-12-31T14:41:57;99653.66;;;17.28;61.88
49341;BME280;35209;51.050;13.678;2022-12-31T14:47:07;99656.56;;;17.10;62.22
49341;BME280;35209;51.050;13.678;2022-12-31T14:57:22;99662.59;;;17.12;62.17
49341;BME280;35209;51.050;13.678;2022-12-31T15:02:25;99656.25;;;17.15;61.68
49341;BME280;35209;51.050;13.678;2022-12-31T15:07:29;99665.53;;;17.22;61.25
49341;BME280;35209;51.050;13.678;2022-12-31T15:12:44;99660.06;;;17.11;62.00
49341;BME280;35209;51.050;13.678;2022-12-31T15:22:48;99686.03;;;17.20;61.23
49341;BME280;35209;51.050;13.678;2022-12-31T15:27:51;99686.97;;;17.19;61.30
49341;BME280;35209;51.050;13.678;2022-12-31T15:32:54;99698.69;;;17.29;60.61
49341;BME280;35209;51.050;13.678;2022-12-31T15:43:25;99708.75;;;16.83;62.55
49341;BME280;35209;51.050;13.678;2022-12-31T15:53:40;99687.94;;;17.04;61.51
49341;BME280;35209;51.050;13.678;2022-12-31T15:58:43;99697.06;;;17.00;61.44
49341;BME280;35209;51.050;13.678;2022-12-31T16:04:28;99708.75;;;16.97;61.34
49341;BME280;35209;51.050;13.678;2022-12-31T16:14:20;99712.34;;;16.96;61.54
49341;BME280;35209;51.050;13.678;2022-12-31T16:19:32;99720.00;;;16.86;61.76
49341;BME280;35209;51.050;13.678;2022-12-31T16:24:35;99715.19;;;16.93;61.62
49341;BME280;35209;51.050;13.678;2022-12-31T16:29:58;99719.00;;;16.89;61.55
49341;BME280;35209;51.050;13.678;2022-12-31T16:35:00;99732.53;;;16.99;61.18
49341;BME280;35209;51.050;13.678;2022-12-31T16:40:06;99734.41;;;16.68;62.45
49341;BME280;35209;51.050;13.678;2022-12-31T16:45:16;99734.50;;;16.52;63.01
49341;BME280;35209;51.050;13.678;2022-12-31T16:50:21;99741.00;;;16.32;64.11
49341;BME280;35209;51.050;13.678;2022-12-31T16:55:24;99739.88;;;16.36;64.09
49341;BME280;35209;51.050;13.678;2022-12-31T17:00:26;99735.97;;;16.28;64.67
49341;BME280;35209;51.050;13.678;2022-12-31T17:05:28;99739.59;;;16.27;64.74
49341;BME280;35209;51.050;13.678;2022-12-31T17:10:33;99742.66;;;16.49;63.97
49341;BME280;35209;51.050;13.678;2022-12-31T17:15:40;99745.13;;;16.52;63.93
49341;BME280;35209;51.050;13.678;2022-12-31T17:20:42;99740.13;;;16.18;65.18
49341;BME280;35209;51.050;13.678;2022-12-31T17:25:44;99734.84;;;16.18;65.34
49341;BME280;35209;51.050;13.678;2022-12-31T17:30:46;99741.03;;;16.02;66.02
49341;BME280;35209;51.050;13.678;2022-12-31T17:35:48;99757.97;;;16.00;66.49
49341;BME280;35209;51.050;13.678;2022-12-31T17:46:09;99760.41;;;16.19;66.01
49341;BME280;35209;51.050;13.678;2022-12-31T17:51:11;99770.59;;;16.10;66.25
49341;BME280;35209;51.050;13.678;2022-12-31T17:56:13;99782.88;;;15.97;66.54
49341;BME280;35209;51.050;13.678;2022-12-31T18:01:19;99787.53;;;15.78;67.32
49341;BME280;35209;51.050;13.678;2022-12-31T18:06:22;99778.78;;;15.60;68.33
49341;BME280;35209;51.050;13.678;2022-12-31T18:11:23;99790.09;;;15.63;67.84
49341;BME280;35209;51.050;13.678;2022-12-31T18:16:25;99797.88;;;15.67;67.45
49341;BME280;35209;51.050;13.678;2022-12-31T18:21:31;99793.81;;;15.44;68.52
49341;BME280;35209;51.050;13.678;2022-12-31T18:26:34;99791.16;;;15.12;69.61
49341;BME280;35209;51.050;13.678;2022-12-31T18:31:36;99785.81;;;14.96;70.26
49341;BME280;35209;51.050;13.678;2022-12-31T18:36:38;99783.53;;;14.90;71.00
49341;BME280;35209;51.050;13.678;2022-12-31T18:41:40;99783.41;;;15.25;69.53
49341;BME280;35209;51.050;13.678;2022-12-31T18:46:42;99767.09;;;15.17;69.58
49341;BME280;35209;51.050;13.678;2022-12-31T18:51:44;99769.03;;;15.45;67.58
49341;BME280;35209;51.050;13.678;2022-12-31T18:56:45;99773.81;;;15.06;69.44
49341;BME280;35209;51.050;13.678;2022-12-31T19:01:52;99759.19;;;14.83;70.45
49341;BME280;35209;51.050;13.678;2022-12-31T19:06:54;99753.56;;;14.56;72.04
49341;BME280;35209;51.050;13.678;2022-12-31T19:11:56;99757.31;;;14.35;72.71
49341;BME280;35209;51.050;13.678;2022-12-31T19:16:58;99751.22;;;14.16;73.49
49341;BME280;35209;51.050;13.678;2022-12-31T19:22:02;99750.38;;;13.98;74.70
49341;BME280;35209;51.050;13.678;2022-12-31T19:27:03;99745.41;;;13.92;74.54
49341;BME280;35209;51.050;13.678;2022-12-31T19:32:05;99737.56;;;13.90;74.21
49341;BME280;35209;51.050;13.678;2022-12-31T19:37:08;99746.88;;;13.97;73.54
49341;BME280;35209;51.050;13.678;2022-12-31T19:42:13;99740.28;;;14.23;71.39
49341;BME280;35209;51.050;13.678;2022-12-31T19:47:15;99738.22;;;14.63;68.79
49341;BME280;35209;51.050;13.678;2022-12-31T19:52:17;99732.41;;;15.37;64.80
49341;BME280;35209;51.050;13.678;2022-12-31T19:57:18;99739.94;;;15.29;64.97
49341;BME280;35209;51.050;13.678;2022-12-31T20:02:20;99733.84;;;15.58;62.78
49341;BME280;35209;51.050;13.678;2022-12-31T20:07:26;99739.56;;;15.82;61.51
49341;BME280;35209;51.050;13.678;2022-12-31T20:12:28;99745.72;;;16.13;60.30
49341;BME280;35209;51.050;13.678;2022-12-31T20:17:29;99731.34;;;16.17;59.87
49341;BME280;35209;51.050;13.678;2022-12-31T20:22:31;99733.06;;;16.32;58.69
49341;BME280;35209;51.050;13.678;2022-12-31T20:27:33;99740.00;;;16.49;57.88
49341;BME280;35209;51.050;13.678;2022-12-31T20:32:35;99739.16;;;16.63;56.99
49341;BME280;35209;51.050;13.678;2022-12-31T20:37:36;99737.19;;;16.95;55.62
49341;BME280;35209;51.050;13.678;2022-12-31T20:42:39;99733.28;;;17.15;55.01
49341;BME280;35209;51.050;13.678;2022-12-31T20:47:41;99722.97;;;16.96;55.18
49341;BME280;35209;51.050;13.678;2022-12-31T20:52:42;99728.34;;;16.95;55.27
49341;BME280;35209;51.050;13.678;2022-12-31T20:57:44;99726.00;;;16.90;55.28
49341;BME280;35209;51.050;13.678;2022-12-31T21:02:46;99716.50;;;16.72;55.72
49341;BME280;35209;51.050;13.678;2022-12-31T21:07:58;99693.25;;;17.04;54.23
49341;BME280;35209;51.050;13.678;2022-12-31T21:12:59;99693.97;;;16.79;54.69
49341;BME280;35209;51.050;13.678;2022-12-31T21:18:01;99674.53;;;16.93;54.09
49341;BME280;35209;51.050;13.678;2022-12-31T21:23:02;99680.63;;;17.07;53.22
49341;BME280;35209;51.050;13.678;2022-12-31T21:28:04;99663.22;;;16.89;53.56
49341;BME280;35209;51.050;13.678;2022-12-31T21:33:06;99671.88;;;16.93;53.47
49341;BME280;35209;51.050;13.678;2022-12-31T21:38:08;99679.34;;;16.86;53.50
49341;BME280;35209;51.050;13.678;2022-12-31T21:43:10;99682.38;;;16.94;52.60
49341;BME280;35209;51.050;13.678;2022-12-31T21:48:12;99700.69;;;16.84;52.53
49341;BME280;35209;51.050;13.678;2022-12-31T21:53:21;99711.00;;;17.03;51.00
49341;BME280;35209;51.050;13.678;2022-12-31T21:58:29;99713.84;;;17.14;49.90
49341;BME280;35209;51.050;13.678;2022-12-31T22:03:31;99724.06;;;17.21;49.79
49341;BME280;35209;51.050;13.678;2022-12-31T22:08:33;99736.41;;;17.07;49.31
49341;BME280;35209;51.050;13.678;2022-12-31T22:13:35;99745.06;;;16.97;49.31
49341;BME280;35209;51.050;13.678;2022-12-31T22:18:37;99756.25;;;16.87;49.48
49341;BME280;35209;51.050;13.678;2022-12-31T22:23:40;99762.69;;;16.98;48.82
49341;BME280;35209;51.050;13.678;2022-12-31T22:28:42;99774.16;;;16.98;48.91
49341;BME280;35209;51.050;13.678;2022-12-31T22:33:44;99773.50;;;16.95;48.59
49341;BME280;35209;51.050;13.678;2022-12-31T22:38:46;99786.88;;;16.93;48.72
49341;BME280;35209;51.050;13.678;2022-12-31T22:43:51;99794.28;;;16.88;49.27
49341;BME280;35209;51.050;13.678;2022-12-31T22:49:03;99795.97;;;16.89;49.68
49341;BME280;35209;51.050;13.678;2022-12-31T22:54:05;99802.41;;;16.85;49.86
49341;BME280;35209;51.050;13.678;2022-12-31T22:59:07;99818.34;;;16.85;50.27
49341;BME280;35209;51.050;13.678;2022-12-31T23:04:08;99819.03;;;16.88;51.08
49341;BME280;35209;51.050;13.678;2022-12-31T23:09:10;99820.59;;;16.77;51.30
49341;BME280;35209;51.050;13.678;2022-12-31T23:14:31;99822.06;;;16.82;51.60
49341;BME280;35209;51.050;13.678;2022-12-31T23:19:51;99826.97;;;16.74;52.30
49341;BME280;35209;51.050;13.678;2022-12-31T23:25:11;99840.31;;;16.73;52.75
49341;BME280;35209;51.050;13.678;2022-12-31T23:30:13;99851.47;;;16.63;52.97
49341;BME280;35209;51.050;13.678;2022-12-31T23:35:14;99827.72;;;16.76;52.64
49341;BME280;35209;51.050;13.678;2022-12-31T23:40:16;99839.25;;;16.61;53.10
49341;BME280;35209;51.050;13.678;2022-12-31T23:45:22;99847.47;;;16.56;53.47
49341;BME280;35209;51.050;13.678;2022-12-31T23:50:29;99839.13;;;16.48;53.54
49341;BME280;35209;51.050;13.678;2022-12-31T23:55:31;99858.28;;;16.37;54.16
